Hovedside
METAR-TAF:

METAR-TAF

Lufthavner :

Draugenfeltet

Draugen, Norge

breddegrad: 64-21-20N, lengdegrad: 007-47-30E, høyde over havet: 0 m

Gjeldene værobservasjon

Denne rapporten ble laget for 52 minutter siden, klokken 12:10 UTC
Vind 14 kt fra Sør-sørøst
Temperatur 13°C
Luftfuktighet 82%
Trykk 1005 hPa
Sikt 10 km eller mer
Brutte skyer i en høyde av 1800 ft
Overskyet i en høyde av 4400 ft
lett duskregn

METAR: ENDR 151210Z 16014KT 9999 -DZ BKN018 OVC044 13/10 Q1005

Tid: 15:02 (13:02 UTC)


TAF: fraværende

Værobservasjoner og værvarsel for over 4000 flyplasser (METAR- og TAF-rapporter).

Tilgjengelige stasjoner er representert av de røde og gule prikkene på kartet.

Hold musepekeren over prikken for å se navnet på stasjonen.

Klikk så for å se værobservasjoner og -varsler.

For å forandre kartet kan du klikke på den grønne knappen med svart kryss for å zoome inn, på den grønne knappen med strek for å zoome ut, eller på de grønne pilene for å se tilstøtende kart.


METAR-TAF: